createdAt,value
2022-08-05T00:01:28.525Z,53.60
2022-08-05T00:03:57.184Z,54.30
2022-08-05T00:06:30.732Z,54.30
2022-08-05T00:09:01.093Z,54.50
2022-08-05T00:11:34.751Z,54.30
2022-08-05T00:14:13.123Z,54.60
2022-08-05T00:16:52.836Z,54.80
2022-08-05T00:19:25.118Z,54.90
2022-08-05T00:22:00.564Z,55.10
2022-08-05T00:24:31.277Z,55.00
2022-08-05T00:26:58.847Z,55.50
2022-08-05T00:29:26.129Z,55.70
2022-08-05T00:32:13.476Z,55.60
2022-08-05T00:35:04.726Z,56.10
2022-08-05T00:37:29.165Z,56.50
2022-08-05T00:40:17.908Z,56.80
2022-08-05T00:42:54.764Z,56.50
2022-08-05T00:45:38.034Z,56.40
2022-08-05T00:48:08.326Z,56.40
2022-08-05T00:50:36.308Z,56.30
2022-08-05T00:53:03.246Z,56.30
2022-08-05T00:55:43.543Z,56.40
2022-08-05T00:58:14.176Z,56.40
2022-08-05T01:00:42.010Z,56.80
2022-08-05T01:03:10.427Z,56.80
2022-08-05T01:05:49.151Z,57.00
2022-08-05T01:08:39.950Z,57.10
2022-08-05T01:11:13.674Z,56.90
2022-08-05T01:13:59.837Z,57.10
2022-08-05T01:16:30.497Z,57.00
2022-08-05T01:19:01.099Z,57.10
2022-08-05T01:21:38.103Z,56.80
2022-08-05T01:24:14.356Z,56.90
2022-08-05T01:26:55.544Z,57.10
2022-08-05T01:29:28.561Z,56.60
2022-08-05T01:32:00.465Z,56.90
2022-08-05T01:34:39.251Z,57.10
2022-08-05T01:37:18.148Z,57.60
2022-08-05T01:39:59.191Z,57.80
2022-08-05T01:42:26.936Z,57.90
2022-08-05T01:44:56.053Z,58.20
2022-08-05T01:47:24.384Z,58.20
2022-08-05T01:50:07.241Z,57.50
2022-08-05T01:52:43.007Z,59.30
2022-08-05T01:55:12.876Z,59.80
2022-08-05T01:58:11.073Z,60.40
2022-08-05T02:00:30.533Z,60.50
2022-08-05T02:03:24.333Z,60.40
2022-08-05T02:05:57.871Z,60.50
2022-08-05T02:08:29.617Z,60.90
2022-08-05T02:10:59.872Z,60.80
2022-08-05T02:13:36.424Z,61.90
2022-08-05T02:16:22.068Z,61.80
2022-08-05T02:18:54.553Z,61.10
2022-08-05T02:21:26.499Z,60.60
2022-08-05T02:24:07.015Z,60.40
2022-08-05T02:26:38.187Z,60.50
2022-08-05T02:29:24.285Z,60.50
2022-08-05T02:31:54.544Z,60.30
2022-08-05T02:34:23.243Z,62.10
2022-08-05T02:36:51.589Z,62.00
2022-08-05T02:39:21.801Z,63.40
2022-08-05T02:42:00.429Z,63.50
2022-08-05T02:44:28.446Z,63.20
2022-08-05T02:47:00.860Z,63.80
2022-08-05T02:49:36.006Z,62.60
2022-08-05T02:52:05.276Z,63.60
2022-08-05T02:54:34.968Z,63.40
2022-08-05T02:57:03.045Z,65.80
2022-08-05T02:59:34.642Z,67.70
2022-08-05T03:02:22.502Z,68.90
2022-08-05T03:04:53.212Z,68.90
2022-08-05T03:07:40.677Z,70.60
2022-08-05T03:10:08.312Z,74.50
2022-08-05T03:12:36.504Z,75.10
2022-08-05T03:15:04.412Z,77.60
2022-08-05T03:17:33.593Z,76.10
2022-08-05T03:20:08.807Z,74.20
2022-08-05T03:22:36.956Z,72.00
2022-08-05T03:25:31.577Z,70.80
2022-08-05T03:27:59.225Z,70.60
2022-08-05T03:30:33.367Z,69.10
2022-08-05T03:33:05.687Z,68.40
2022-08-05T03:35:33.722Z,70.20
2022-08-05T03:38:01.098Z,68.60
2022-08-05T03:40:31.983Z,67.20
2022-08-05T03:43:15.956Z,67.60
2022-08-05T03:45:57.645Z,67.40
2022-08-05T03:48:25.299Z,68.70
2022-08-05T03:51:33.460Z,68.20
2022-08-05T03:55:50.895Z,68.70
2022-08-05T03:56:46.621Z,68.70
2022-08-05T03:59:47.272Z,69.20
2022-08-05T04:02:38.647Z,70.30
2022-08-05T04:05:09.726Z,71.10
2022-08-05T04:07:57.192Z,71.10
2022-08-05T04:10:27.682Z,72.20
2022-08-05T04:12:55.335Z,72.80
2022-08-05T04:15:24.313Z,73.70
2022-08-05T04:17:57.132Z,73.40
2022-08-05T04:20:24.266Z,73.80
2022-08-05T04:22:51.232Z,74.20
2022-08-05T04:25:17.950Z,74.80
2022-08-05T04:27:56.414Z,75.50
2022-08-05T04:30:24.876Z,76.60
2022-08-05T04:32:54.481Z,75.80
2022-08-05T04:35:21.105Z,76.80
2022-08-05T04:38:02.797Z,76.80
2022-08-05T04:40:44.533Z,76.80
2022-08-05T04:43:17.444Z,77.70
2022-08-05T04:45:54.992Z,77.70
2022-08-05T04:48:27.534Z,77.10
2022-08-05T04:51:03.195Z,76.20
2022-08-05T04:53:33.511Z,75.90
2022-08-05T04:56:33.123Z,75.10
2022-08-05T04:58:49.550Z,74.40
2022-08-05T05:02:06.075Z,74.20
2022-08-05T05:04:02.984Z,73.90
2022-08-05T05:06:39.777Z,73.90
2022-08-05T05:09:14.293Z,73.90
2022-08-05T05:11:53.094Z,73.50
2022-08-05T05:14:31.677Z,73.00
2022-08-05T05:17:03.541Z,73.10
2022-08-05T05:19:37.202Z,72.80
2022-08-05T05:22:23.673Z,72.80
2022-08-05T05:25:00.228Z,73.10
2022-08-05T05:27:41.616Z,71.90
2022-08-05T05:30:31.143Z,71.90
2022-08-05T05:33:09.080Z,71.80
2022-08-05T05:35:47.400Z,71.50
2022-08-05T05:38:14.782Z,71.50
2022-08-05T05:40:51.547Z,71.30
2022-08-05T05:43:22.229Z,70.80
2022-08-05T05:46:13.671Z,70.20
2022-08-05T05:48:43.928Z,70.00
2022-08-05T05:51:14.987Z,70.20
2022-08-05T05:53:46.091Z,70.40
2022-08-05T05:56:32.782Z,70.00
2022-08-05T05:59:05.901Z,69.60
2022-08-05T06:01:37.995Z,67.80
2022-08-05T06:04:05.998Z,66.70
2022-08-05T06:06:35.101Z,64.10
2022-08-05T06:09:03.916Z,60.40
2022-08-05T06:11:31.264Z,58.30
2022-08-05T06:13:58.173Z,55.80
2022-08-05T06:16:32.873Z,53.70
2022-08-05T06:19:06.012Z,52.90
2022-08-05T06:21:36.548Z,51.10
2022-08-05T06:24:11.476Z,52.60
2022-08-05T06:26:51.801Z,52.90
2022-08-05T06:29:25.237Z,53.40
2022-08-05T06:32:25.531Z,55.30
2022-08-05T06:34:58.423Z,56.00
2022-08-05T06:37:55.896Z,54.50
2022-08-05T06:40:13.685Z,54.70
2022-08-05T06:42:40.482Z,55.00
2022-08-05T06:45:08.873Z,55.00
2022-08-05T06:48:47.408Z,54.80
2022-08-05T06:50:23.001Z,53.80
2022-08-05T06:52:58.879Z,52.40
2022-08-05T06:55:36.129Z,50.80
2022-08-05T06:58:29.035Z,51.10
2022-08-05T07:00:51.870Z,51.50
2022-08-05T07:03:18.638Z,54.00
2022-08-05T07:05:46.250Z,54.40
2022-08-05T07:08:13.355Z,54.80
2022-08-05T07:10:53.073Z,56.00
2022-08-05T07:18:01.492Z,56.00
2022-08-05T07:20:31.012Z,57.90
2022-08-05T07:22:27.684Z,60.80
2022-08-05T07:24:56.482Z,63.70
2022-08-05T07:27:23.365Z,62.30
2022-08-05T07:30:30.279Z,63.60
2022-08-05T07:32:43.541Z,63.90
2022-08-05T07:35:56.734Z,63.80
2022-08-05T07:38:05.199Z,62.70
2022-08-05T07:40:38.895Z,60.60
2022-08-05T07:43:14.531Z,60.70
2022-08-05T07:45:57.029Z,59.00
2022-08-05T07:48:36.589Z,60.60
2022-08-05T07:51:23.662Z,59.60
2022-08-05T07:53:58.755Z,59.50
2022-08-05T07:57:00.441Z,58.80
2022-08-05T07:59:15.303Z,58.80
2022-08-05T08:01:52.454Z,59.60
2022-08-05T08:04:37.750Z,61.80
2022-08-05T08:07:05.589Z,60.10
2022-08-05T08:09:34.532Z,61.40
2022-08-05T08:12:09.108Z,67.80
2022-08-05T08:14:46.706Z,73.20
2022-08-05T08:17:16.239Z,71.10
2022-08-05T08:20:21.241Z,72.70
2022-08-05T08:22:30.612Z,73.80
2022-08-05T08:25:03.093Z,72.90
2022-08-05T08:27:44.835Z,75.50
2022-08-05T08:30:28.465Z,74.70
2022-08-05T08:33:04.533Z,73.60
2022-08-05T08:35:41.427Z,71.10
2022-08-05T08:38:35.154Z,69.40
2022-08-05T08:41:08.723Z,69.40
2022-08-05T08:45:24.433Z,67.60
2022-08-05T08:46:24.484Z,66.60
2022-08-05T08:49:04.938Z,64.50
2022-08-05T08:52:05.956Z,64.40
2022-08-05T08:54:27.209Z,62.90
2022-08-05T08:56:56.844Z,57.70
2022-08-05T08:59:27.690Z,54.90
2022-08-05T09:02:05.196Z,56.30
2022-08-05T09:04:37.666Z,57.20
2022-08-05T09:07:28.575Z,56.50
2022-08-05T09:09:56.162Z,57.60
2022-08-05T09:12:27.299Z,58.30
2022-08-05T09:15:03.989Z,57.30
2022-08-05T09:17:40.516Z,57.10
2022-08-05T09:20:10.633Z,56.10
2022-08-05T09:22:56.213Z,56.50
2022-08-05T09:26:02.194Z,54.60
2022-08-05T09:28:23.374Z,52.00
2022-08-05T09:30:57.296Z,50.00
2022-08-05T09:33:24.505Z,45.10
2022-08-05T09:36:11.611Z,42.40
2022-08-05T09:38:59.193Z,42.40
2022-08-05T09:41:26.360Z,45.10
2022-08-05T09:43:59.468Z,41.40
2022-08-05T09:46:28.437Z,41.70
2022-08-05T09:49:08.054Z,40.50
2022-08-05T09:51:49.392Z,38.80
2022-08-05T09:54:28.918Z,39.10
2022-08-05T09:56:55.841Z,37.80
2022-08-05T09:59:24.460Z,37.30
2022-08-05T10:01:58.315Z,36.20
2022-08-05T10:04:35.039Z,38.40
2022-08-05T10:07:19.579Z,40.00
2022-08-05T10:10:13.952Z,41.20
2022-08-05T10:12:49.743Z,41.10
2022-08-05T10:15:27.654Z,39.10
2022-08-05T10:18:05.819Z,39.00
2022-08-05T10:20:34.486Z,38.10
2022-08-05T10:23:01.610Z,37.10
2022-08-05T10:25:28.410Z,37.20
2022-08-05T10:28:09.334Z,36.20
2022-08-05T10:32:46.780Z,36.80
2022-08-05T10:33:29.143Z,36.70
2022-08-05T10:36:03.960Z,38.90
2022-08-05T10:38:33.027Z,38.40
2022-08-05T10:41:28.104Z,38.70
2022-08-05T10:44:36.064Z,37.50
2022-08-05T10:47:26.676Z,38.00
2022-08-05T10:50:31.962Z,37.80
2022-08-05T10:52:58.748Z,36.70
2022-08-05T10:56:03.849Z,37.10
2022-08-05T10:58:35.916Z,37.60
2022-08-05T11:01:54.647Z,37.80
2022-08-05T11:04:28.291Z,36.40
2022-08-05T11:07:06.903Z,36.20
2022-08-05T11:09:51.898Z,37.00
2022-08-05T11:12:35.039Z,38.40
2022-08-05T11:15:19.786Z,37.70
2022-08-05T11:18:03.766Z,39.20
2022-08-05T11:20:57.282Z,40.30
2022-08-05T11:24:02.983Z,40.60
2022-08-05T11:26:28.563Z,41.10
2022-08-05T11:29:11.896Z,42.40
2022-08-05T11:31:58.580Z,42.90
2022-08-05T11:34:50.918Z,42.40
2022-08-05T11:38:30.567Z,43.00
2022-08-05T11:41:34.349Z,43.00
2022-08-05T11:44:40.848Z,44.00
2022-08-05T11:50:10.528Z,44.20
2022-08-05T11:52:46.207Z,45.40
2022-08-05T11:55:16.493Z,45.00
2022-08-05T11:58:09.444Z,44.80
2022-08-05T12:00:38.282Z,43.40
2022-08-05T12:03:15.876Z,42.00
2022-08-05T12:05:51.001Z,41.80
2022-08-05T12:08:18.602Z,42.40
2022-08-05T12:10:46.580Z,43.70
2022-08-05T12:13:28.152Z,43.70
2022-08-05T12:16:04.447Z,45.20
2022-08-05T12:18:40.969Z,45.20
2022-08-05T12:21:17.407Z,45.00
2022-08-05T12:24:04.314Z,44.20
2022-08-05T12:26:35.506Z,43.80
2022-08-05T12:29:09.490Z,42.20
2022-08-05T12:31:42.501Z,43.20
2022-08-05T12:34:20.685Z,44.00
2022-08-05T12:36:49.963Z,44.40
2022-08-05T12:39:17.709Z,45.50
2022-08-05T12:41:48.675Z,47.40
2022-08-05T12:44:28.681Z,47.00
2022-08-05T12:47:04.497Z,47.40
2022-08-05T12:50:03.419Z,46.50
2022-08-05T12:52:33.870Z,47.40
2022-08-05T12:55:22.085Z,47.70
2022-08-05T12:58:50.572Z,47.50
2022-08-05T13:02:01.382Z,47.50
2022-08-05T13:03:32.571Z,47.50
2022-08-05T13:06:00.880Z,47.30
2022-08-05T13:08:32.217Z,46.50
2022-08-05T13:11:02.626Z,46.40
2022-08-05T13:14:06.643Z,46.20
2022-08-05T13:16:20.453Z,45.40
2022-08-05T13:18:58.469Z,45.80
2022-08-05T13:21:28.230Z,45.10
2022-08-05T13:24:05.158Z,44.80
2022-08-05T13:26:34.941Z,44.80
2022-08-05T13:29:01.714Z,45.20
2022-08-05T13:32:03.261Z,46.60
2022-08-05T13:34:22.502Z,46.90
2022-08-05T13:36:50.663Z,47.50
2022-08-05T13:40:14.334Z,48.20
2022-08-05T13:42:04.288Z,48.40
2022-08-05T13:44:32.770Z,47.50
2022-08-05T13:47:08.397Z,48.10
2022-08-05T13:49:36.054Z,47.20
2022-08-05T13:52:12.485Z,47.70
2022-08-05T13:54:39.203Z,48.00
2022-08-05T13:57:06.414Z,48.90
2022-08-05T13:59:33.311Z,49.20
2022-08-05T14:02:03.122Z,49.30
2022-08-05T14:04:51.342Z,50.20
2022-08-05T14:07:26.073Z,51.00
2022-08-05T14:10:09.020Z,51.50
2022-08-05T14:12:35.856Z,52.40
2022-08-05T14:16:04.519Z,52.80
2022-08-05T14:17:50.121Z,52.90
2022-08-05T14:20:19.785Z,52.80
2022-08-05T14:22:54.359Z,52.30
2022-08-05T14:25:22.468Z,53.00
2022-08-05T14:27:54.572Z,53.40
2022-08-05T14:30:21.480Z,53.00
2022-08-05T14:32:51.290Z,53.20
2022-08-05T14:35:22.885Z,52.40
2022-08-05T14:37:53.600Z,52.80
2022-08-05T14:40:24.687Z,53.20
2022-08-05T14:42:55.247Z,53.40
2022-08-05T14:45:22.558Z,54.00
2022-08-05T14:48:03.416Z,54.20
2022-08-05T14:50:33.107Z,53.80
2022-08-05T14:53:05.945Z,54.20
2022-08-05T14:55:39.154Z,59.90
2022-08-05T14:58:12.216Z,54.50
2022-08-05T15:00:58.825Z,55.30
2022-08-05T15:03:34.088Z,55.30
2022-08-05T15:06:07.298Z,55.10
2022-08-05T15:08:59.489Z,55.30
2022-08-05T15:11:51.388Z,55.40
2022-08-05T15:14:34.768Z,55.40
2022-08-05T15:17:14.600Z,55.40
2022-08-05T15:19:55.112Z,55.20
2022-08-05T15:22:22.451Z,55.10
2022-08-05T15:24:59.433Z,55.30
2022-08-05T15:27:26.226Z,55.50
2022-08-05T15:29:59.138Z,55.80
2022-08-05T15:32:28.844Z,55.90
2022-08-05T15:34:56.974Z,55.80
2022-08-05T15:38:33.519Z,56.30
2022-08-05T15:40:58.549Z,55.70
2022-08-05T15:43:12.506Z,56.20
2022-08-05T15:45:45.716Z,57.40
2022-08-05T15:48:14.074Z,57.90
2022-08-05T15:50:41.349Z,58.90
2022-08-05T15:53:12.490Z,58.30
2022-08-05T15:56:02.659Z,60.20
2022-08-05T15:58:28.323Z,60.90
2022-08-05T16:01:04.338Z,61.40
2022-08-05T16:03:42.227Z,61.60
2022-08-05T16:06:11.442Z,61.00
2022-08-05T16:08:43.567Z,61.90
2022-08-05T16:11:11.443Z,62.10
2022-08-05T16:13:40.476Z,62.50
2022-08-05T16:16:07.352Z,63.30
2022-08-05T16:18:51.683Z,64.00
2022-08-05T16:21:20.527Z,71.70
2022-08-05T16:23:54.045Z,64.60
2022-08-05T16:26:26.404Z,65.00
2022-08-05T16:28:54.440Z,65.60
2022-08-05T16:31:21.765Z,65.30
2022-08-05T16:33:48.623Z,65.40
2022-08-05T16:36:20.480Z,65.60
2022-08-05T16:39:02.490Z,65.70
2022-08-05T16:42:12.822Z,65.80
2022-08-05T16:44:18.472Z,64.30
2022-08-05T16:46:55.985Z,64.90
2022-08-05T16:49:23.312Z,64.20
2022-08-05T16:51:51.152Z,63.70
2022-08-05T16:54:26.244Z,63.80
2022-08-05T16:56:56.497Z,63.50
2022-08-05T16:59:23.562Z,64.00
2022-08-05T17:01:54.607Z,64.20
2022-08-05T17:04:23.657Z,63.10
2022-08-05T17:06:53.388Z,63.50
2022-08-05T17:09:20.532Z,63.80
2022-08-05T17:11:48.821Z,64.00
2022-08-05T17:14:22.162Z,64.00
2022-08-05T17:17:01.329Z,64.00
2022-08-05T17:19:29.374Z,65.10
2022-08-05T17:21:59.700Z,64.90
2022-08-05T17:24:38.538Z,64.80
2022-08-05T17:27:16.190Z,65.60
2022-08-05T17:29:42.845Z,65.90
2022-08-05T17:32:16.706Z,65.40
2022-08-05T17:34:53.444Z,66.00
2022-08-05T17:37:40.721Z,66.30
2022-08-05T17:40:14.265Z,65.90
2022-08-05T17:42:50.638Z,66.20
2022-08-05T17:45:23.164Z,66.40
2022-08-05T17:47:55.125Z,67.50
2022-08-05T17:50:29.645Z,68.00
2022-08-05T17:53:00.779Z,66.00
2022-08-05T17:55:37.498Z,80.70
2022-08-05T17:58:05.944Z,67.10
2022-08-05T18:00:34.529Z,67.20
2022-08-05T18:03:02.153Z,67.30
2022-08-05T18:05:28.797Z,68.30
2022-08-05T18:08:02.344Z,67.30
2022-08-05T18:10:30.133Z,67.60
2022-08-05T18:13:00.434Z,67.60
2022-08-05T18:15:31.184Z,67.50
2022-08-05T18:18:05.565Z,67.60
2022-08-05T18:20:37.755Z,68.40
2022-08-05T18:23:12.077Z,68.30
2022-08-05T18:25:44.914Z,68.40
2022-08-05T18:28:13.963Z,69.40
2022-08-05T18:30:50.818Z,68.90
2022-08-05T18:33:22.529Z,68.40
2022-08-05T18:36:03.790Z,71.80
2022-08-05T18:38:34.448Z,68.30
2022-08-05T18:41:58.475Z,70.50
2022-08-05T18:43:49.395Z,68.80
2022-08-05T18:46:20.001Z,67.60
2022-08-05T18:48:48.190Z,68.30
2022-08-05T18:52:06.454Z,67.40
2022-08-05T18:54:28.548Z,67.60
2022-08-05T18:57:01.696Z,67.40
2022-08-05T18:59:43.189Z,67.30
2022-08-05T19:02:26.511Z,67.30
2022-08-05T19:05:01.270Z,67.60
2022-08-05T19:07:30.078Z,69.70
2022-08-05T19:13:02.356Z,67.20
2022-08-05T19:16:00.118Z,67.50
2022-08-05T19:18:21.929Z,67.70
2022-08-05T19:20:52.502Z,67.60
2022-08-05T19:24:04.397Z,67.70
2022-08-05T19:26:09.332Z,67.90
2022-08-05T19:28:42.019Z,68.20
2022-08-05T19:31:09.721Z,68.20
2022-08-05T19:33:40.730Z,68.30
2022-08-05T19:36:16.871Z,68.00
2022-08-05T19:38:45.002Z,67.90
2022-08-05T19:41:12.168Z,68.80
2022-08-05T19:44:06.549Z,69.40
2022-08-05T19:46:30.038Z,68.50
2022-08-05T19:49:03.569Z,68.40
2022-08-05T19:52:04.459Z,68.00
2022-08-05T19:54:25.429Z,68.30
2022-08-05T19:56:58.804Z,69.30
2022-08-05T19:59:59.391Z,68.50
2022-08-05T20:02:13.059Z,68.50
2022-08-05T20:04:43.020Z,68.60
2022-08-05T20:07:13.480Z,68.90
2022-08-05T20:09:53.879Z,69.20
2022-08-05T20:12:22.947Z,68.60
2022-08-05T20:14:52.326Z,70.20
2022-08-05T20:17:23.665Z,68.40
2022-08-05T20:19:50.882Z,68.40
2022-08-05T20:22:26.752Z,68.30
2022-08-05T20:24:54.774Z,68.20
2022-08-05T20:27:26.880Z,67.50
2022-08-05T20:29:57.961Z,68.10
2022-08-05T20:32:26.402Z,67.00
2022-08-05T20:34:53.271Z,67.00
2022-08-05T20:38:04.883Z,66.80
2022-08-05T20:40:07.608Z,66.60
2022-08-05T20:42:34.752Z,67.00
2022-08-05T20:45:02.693Z,66.90
2022-08-05T20:47:31.843Z,67.00
2022-08-05T20:50:02.029Z,66.80
2022-08-05T20:52:29.212Z,67.30
2022-08-05T20:54:59.451Z,66.90
2022-08-05T20:57:43.912Z,67.00
2022-08-05T21:00:20.863Z,67.00
2022-08-05T21:03:06.314Z,66.70
2022-08-05T21:05:38.319Z,67.50
2022-08-05T21:08:20.057Z,67.60
2022-08-05T21:10:49.186Z,68.10
2022-08-05T21:13:20.245Z,66.80
2022-08-05T21:15:56.414Z,66.70
2022-08-05T21:18:24.079Z,67.20
2022-08-05T21:20:54.163Z,67.50
2022-08-05T21:23:22.419Z,67.20
2022-08-05T21:25:49.465Z,68.60
2022-08-05T21:28:18.497Z,67.20
2022-08-05T21:30:45.419Z,67.60
2022-08-05T21:33:22.267Z,67.40
2022-08-05T21:35:55.697Z,67.90
2022-08-05T21:38:25.500Z,68.30
2022-08-05T21:40:52.129Z,67.30
2022-08-05T21:43:24.722Z,67.60
2022-08-05T21:45:57.462Z,67.50
2022-08-05T21:48:27.679Z,67.60
2022-08-05T21:50:54.628Z,67.30
2022-08-05T21:53:21.655Z,68.20
2022-08-05T21:56:05.322Z,68.40
2022-08-05T21:58:36.860Z,68.30
2022-08-05T22:01:10.755Z,71.00
2022-08-05T22:03:48.877Z,70.30
2022-08-05T22:06:22.782Z,68.10
2022-08-05T22:08:51.868Z,68.40
2022-08-05T22:11:19.567Z,68.00
2022-08-05T22:14:18.133Z,68.70
2022-08-05T22:16:51.143Z,68.50
2022-08-05T22:20:02.125Z,68.80
2022-08-05T22:22:07.042Z,69.70
2022-08-05T22:24:53.654Z,69.00
2022-08-05T22:28:11.418Z,69.40
2022-08-05T22:30:35.256Z,69.70
2022-08-05T22:33:03.905Z,72.80
2022-08-05T22:35:48.785Z,69.60
2022-08-05T22:38:16.485Z,69.30
2022-08-05T22:40:49.822Z,69.10
2022-08-05T22:43:36.955Z,69.20
2022-08-05T22:46:12.142Z,68.90
2022-08-05T22:48:41.187Z,71.60
2022-08-05T22:51:08.307Z,68.90
2022-08-05T22:53:42.799Z,68.70
2022-08-05T22:56:16.996Z,69.10
2022-08-05T22:58:43.948Z,69.30
2022-08-05T23:01:10.596Z,69.00
2022-08-05T23:03:58.950Z,71.70
2022-08-05T23:06:26.295Z,69.30
2022-08-05T23:08:53.117Z,68.70
2022-08-05T23:11:19.749Z,69.00
2022-08-05T23:13:51.493Z,68.60
2022-08-05T23:16:33.302Z,69.10
2022-08-05T23:19:00.297Z,69.00
2022-08-05T23:21:42.512Z,69.20
2022-08-05T23:24:14.498Z,68.80
2022-08-05T23:26:41.976Z,69.60
2022-08-05T23:29:10.942Z,69.20
2022-08-05T23:31:42.518Z,68.80
2022-08-05T23:34:09.502Z,69.00
2022-08-05T23:36:39.836Z,68.80
2022-08-05T23:39:16.581Z,69.10
2022-08-05T23:41:50.714Z,69.30
2022-08-05T23:44:17.331Z,69.10
2022-08-05T23:46:46.833Z,70.20
2022-08-05T23:49:17.073Z,69.90
2022-08-05T23:52:07.917Z,70.00
2022-08-05T23:54:38.108Z,73.20
2022-08-05T23:57:06.502Z,69.80
2022-08-05T23:59:37.701Z,68.80
